sensor_id;sensor_type;location;lat;lon;timestamp;temperature;humidity
19974;DHT22;10148;47.694;9.442;2022-08-06T00:02:29;18.90;99.90
19974;DHT22;10148;47.694;9.442;2022-08-06T00:04:57;19.00;99.90
19974;DHT22;10148;47.694;9.442;2022-08-06T00:07:23;18.90;99.90
19974;DHT22;10148;47.694;9.442;2022-08-06T00:09:48;18.90;99.90
19974;DHT22;10148;47.694;9.442;2022-08-06T00:12:15;18.90;99.90
19974;DHT22;10148;47.694;9.442;2022-08-06T00:14:41;18.90;99.90
19974;DHT22;10148;47.694;9.442;2022-08-06T00:17:06;18.80;99.90
19974;DHT22;10148;47.694;9.442;2022-08-06T00:19:32;18.90;99.90
19974;DHT22;10148;47.694;9.442;2022-08-06T00:21:58;18.90;99.90
19974;DHT22;10148;47.694;9.442;2022-08-06T00:24:23;18.90;99.90
19974;DHT22;10148;47.694;9.442;2022-08-06T00:26:49;18.80;99.90
19974;DHT22;10148;47.694;9.442;2022-08-06T00:29:15;18.80;99.90
19974;DHT22;10148;47.694;9.442;2022-08-06T00:31:40;18.80;99.90
19974;DHT22;10148;47.694;9.442;2022-08-06T00:34:06;18.90;99.90
19974;DHT22;10148;47.694;9.442;2022-08-06T00:36:33;18.90;99.90
19974;DHT22;10148;47.694;9.442;2022-08-06T00:39:00;18.90;99.90
19974;DHT22;10148;47.694;9.442;2022-08-06T00:41:28;19.00;99.90
19974;DHT22;10148;47.694;9.442;2022-08-06T00:43:54;19.00;99.90
19974;DHT22;10148;47.694;9.442;2022-08-06T00:46:22;18.90;99.90
19974;DHT22;10148;47.694;9.442;2022-08-06T00:48:47;19.00;99.90
19974;DHT22;10148;47.694;9.442;2022-08-06T00:51:13;19.00;99.90
19974;DHT22;10148;47.694;9.442;2022-08-06T00:53:38;19.00;99.90
19974;DHT22;10148;47.694;9.442;2022-08-06T00:56:04;19.10;99.90
19974;DHT22;10148;47.694;9.442;2022-08-06T00:58:30;19.10;99.90
19974;DHT22;10148;47.694;9.442;2022-08-06T01:00:56;19.10;99.90
19974;DHT22;10148;47.694;9.442;2022-08-06T01:03:22;19.10;99.90
19974;DHT22;10148;47.694;9.442;2022-08-06T01:05:48;19.10;99.90
19974;DHT22;10148;47.694;9.442;2022-08-06T01:08:13;19.20;99.90
19974;DHT22;10148;47.694;9.442;2022-08-06T01:10:39;19.10;99.90
19974;DHT22;10148;47.694;9.442;2022-08-06T01:13:05;19.10;99.90
19974;DHT22;10148;47.694;9.442;2022-08-06T01:15:34;19.00;99.90
19974;DHT22;10148;47.694;9.442;2022-08-06T01:18:10;19.00;99.90
19974;DHT22;10148;47.694;9.442;2022-08-06T01:23:28;19.00;99.90
19974;DHT22;10148;47.694;9.442;2022-08-06T01:26:02;19.00;99.90
19974;DHT22;10148;47.694;9.442;2022-08-06T01:28:43;19.00;99.90
19974;DHT22;10148;47.694;9.442;2022-08-06T01:31:19;19.10;99.90
19974;DHT22;10148;47.694;9.442;2022-08-06T01:33:51;19.00;99.90
19974;DHT22;10148;47.694;9.442;2022-08-06T01:36:44;19.00;99.90
19974;DHT22;10148;47.694;9.442;2022-08-06T01:39:12;19.00;99.90
19974;DHT22;10148;47.694;9.442;2022-08-06T01:41:45;19.00;99.90
19974;DHT22;10148;47.694;9.442;2022-08-06T01:44:16;19.00;99.90
19974;DHT22;10148;47.694;9.442;2022-08-06T01:46:46;18.90;99.90
19974;DHT22;10148;47.694;9.442;2022-08-06T01:49:17;18.90;99.90
19974;DHT22;10148;47.694;9.442;2022-08-06T01:51:44;18.90;99.90
19974;DHT22;10148;47.694;9.442;2022-08-06T01:54:11;18.90;99.90
19974;DHT22;10148;47.694;9.442;2022-08-06T01:56:39;18.80;99.90
19974;DHT22;10148;47.694;9.442;2022-08-06T01:59:06;18.80;99.90
19974;DHT22;10148;47.694;9.442;2022-08-06T02:01:35;18.80;99.90
19974;DHT22;10148;47.694;9.442;2022-08-06T02:04:02;18.80;99.90
19974;DHT22;10148;47.694;9.442;2022-08-06T02:06:40;18.70;99.90
19974;DHT22;10148;47.694;9.442;2022-08-06T02:09:14;18.70;99.90
19974;DHT22;10148;47.694;9.442;2022-08-06T02:11:43;18.70;99.90
19974;DHT22;10148;47.694;9.442;2022-08-06T02:14:12;18.80;99.90
19974;DHT22;10148;47.694;9.442;2022-08-06T02:16:41;18.80;99.90
19974;DHT22;10148;47.694;9.442;2022-08-06T02:19:09;18.70;99.90
19974;DHT22;10148;47.694;9.442;2022-08-06T02:21:37;18.70;99.90
19974;DHT22;10148;47.694;9.442;2022-08-06T02:24:06;18.70;99.90
19974;DHT22;10148;47.694;9.442;2022-08-06T02:26:34;18.60;99.90
19974;DHT22;10148;47.694;9.442;2022-08-06T02:29:04;18.60;99.90
19974;DHT22;10148;47.694;9.442;2022-08-06T02:31:29;18.70;99.90
19974;DHT22;10148;47.694;9.442;2022-08-06T02:33:55;18.70;99.90
19974;DHT22;10148;47.694;9.442;2022-08-06T02:36:41;18.70;99.90
19974;DHT22;10148;47.694;9.442;2022-08-06T02:39:29;18.70;99.90
19974;DHT22;10148;47.694;9.442;2022-08-06T02:42:01;18.70;99.90
19974;DHT22;10148;47.694;9.442;2022-08-06T02:44:38;18.70;99.90
19974;DHT22;10148;47.694;9.442;2022-08-06T02:47:38;18.70;99.90
19974;DHT22;10148;47.694;9.442;2022-08-06T02:50:05;18.70;99.90
19974;DHT22;10148;47.694;9.442;2022-08-06T02:55:05;18.70;99.90
19974;DHT22;10148;47.694;9.442;2022-08-06T02:57:37;18.70;99.90
19974;DHT22;10148;47.694;9.442;2022-08-06T03:00:07;18.70;99.90
19974;DHT22;10148;47.694;9.442;2022-08-06T03:02:36;18.70;99.90
19974;DHT22;10148;47.694;9.442;2022-08-06T03:05:04;18.80;99.90
19974;DHT22;10148;47.694;9.442;2022-08-06T03:07:31;18.80;99.90
19974;DHT22;10148;47.694;9.442;2022-08-06T03:10:00;18.80;99.90
19974;DHT22;10148;47.694;9.442;2022-08-06T03:12:26;18.80;99.90
19974;DHT22;10148;47.694;9.442;2022-08-06T03:14:53;18.80;99.90
19974;DHT22;10148;47.694;9.442;2022-08-06T03:17:20;18.80;99.90
19974;DHT22;10148;47.694;9.442;2022-08-06T03:19:47;18.80;99.90
19974;DHT22;10148;47.694;9.442;2022-08-06T03:22:15;18.80;99.90
19974;DHT22;10148;47.694;9.442;2022-08-06T03:24:42;18.80;99.90
19974;DHT22;10148;47.694;9.442;2022-08-06T03:27:11;18.80;99.90
19974;DHT22;10148;47.694;9.442;2022-08-06T03:29:38;18.80;99.90
19974;DHT22;10148;47.694;9.442;2022-08-06T03:34:36;18.80;99.90
19974;DHT22;10148;47.694;9.442;2022-08-06T03:37:03;18.80;99.90
19974;DHT22;10148;47.694;9.442;2022-08-06T03:39:31;18.80;99.90
19974;DHT22;10148;47.694;9.442;2022-08-06T03:41:57;18.70;99.90
19974;DHT22;10148;47.694;9.442;2022-08-06T03:44:23;18.70;99.90
19974;DHT22;10148;47.694;9.442;2022-08-06T03:46:56;18.60;99.90
19974;DHT22;10148;47.694;9.442;2022-08-06T03:49:42;18.60;99.90
19974;DHT22;10148;47.694;9.442;2022-08-06T03:52:12;18.50;99.90
19974;DHT22;10148;47.694;9.442;2022-08-06T03:54:44;18.50;99.90
19974;DHT22;10148;47.694;9.442;2022-08-06T03:57:13;18.40;99.90
19974;DHT22;10148;47.694;9.442;2022-08-06T03:59:42;18.40;99.90
19974;DHT22;10148;47.694;9.442;2022-08-06T04:02:09;18.30;99.90
19974;DHT22;10148;47.694;9.442;2022-08-06T04:04:35;18.30;99.90
19974;DHT22;10148;47.694;9.442;2022-08-06T04:07:01;18.30;99.90
19974;DHT22;10148;47.694;9.442;2022-08-06T04:09:30;18.20;99.90
19974;DHT22;10148;47.694;9.442;2022-08-06T04:11:56;18.10;99.90
19974;DHT22;10148;47.694;9.442;2022-08-06T04:14:23;18.00;99.90
19974;DHT22;10148;47.694;9.442;2022-08-06T04:16:49;17.90;99.90
19974;DHT22;10148;47.694;9.442;2022-08-06T04:19:15;17.80;99.90
19974;DHT22;10148;47.694;9.442;2022-08-06T04:21:44;17.70;99.90
19974;DHT22;10148;47.694;9.442;2022-08-06T04:24:10;17.60;99.90
19974;DHT22;10148;47.694;9.442;2022-08-06T04:26:37;17.40;99.90
19974;DHT22;10148;47.694;9.442;2022-08-06T04:29:06;17.40;99.90
19974;DHT22;10148;47.694;9.442;2022-08-06T04:31:34;17.30;99.90
19974;DHT22;10148;47.694;9.442;2022-08-06T04:34:01;17.30;99.90
19974;DHT22;10148;47.694;9.442;2022-08-06T04:36:27;17.30;99.90
19974;DHT22;10148;47.694;9.442;2022-08-06T04:38:54;17.20;99.90
19974;DHT22;10148;47.694;9.442;2022-08-06T04:41:20;17.10;99.90
19974;DHT22;10148;47.694;9.442;2022-08-06T04:43:46;17.10;99.90
19974;DHT22;10148;47.694;9.442;2022-08-06T04:46:12;17.10;99.90
19974;DHT22;10148;47.694;9.442;2022-08-06T04:48:38;17.10;99.90
19974;DHT22;10148;47.694;9.442;2022-08-06T04:51:04;17.00;99.90
19974;DHT22;10148;47.694;9.442;2022-08-06T04:53:36;17.00;99.90
19974;DHT22;10148;47.694;9.442;2022-08-06T04:56:03;16.90;99.90
19974;DHT22;10148;47.694;9.442;2022-08-06T04:58:29;16.90;99.90
19974;DHT22;10148;47.694;9.442;2022-08-06T05:00:54;17.00;99.90
19974;DHT22;10148;47.694;9.442;2022-08-06T05:03:20;17.00;99.90
19974;DHT22;10148;47.694;9.442;2022-08-06T05:06:09;16.90;99.90
19974;DHT22;10148;47.694;9.442;2022-08-06T05:08:40;16.90;99.90
19974;DHT22;10148;47.694;9.442;2022-08-06T05:11:26;16.90;99.90
19974;DHT22;10148;47.694;9.442;2022-08-06T05:13:57;16.90;99.90
19974;DHT22;10148;47.694;9.442;2022-08-06T05:16:24;17.00;99.90
19974;DHT22;10148;47.694;9.442;2022-08-06T05:18:53;16.90;99.90
19974;DHT22;10148;47.694;9.442;2022-08-06T05:21:28;17.00;99.90
19974;DHT22;10148;47.694;9.442;2022-08-06T05:23:55;16.90;99.90
19974;DHT22;10148;47.694;9.442;2022-08-06T05:26:22;16.90;99.90
19974;DHT22;10148;47.694;9.442;2022-08-06T05:28:47;16.90;99.90
19974;DHT22;10148;47.694;9.442;2022-08-06T05:31:13;16.90;99.90
19974;DHT22;10148;47.694;9.442;2022-08-06T05:33:39;16.90;99.90
19974;DHT22;10148;47.694;9.442;2022-08-06T05:36:07;16.90;99.90
19974;DHT22;10148;47.694;9.442;2022-08-06T05:38:35;16.90;99.90
19974;DHT22;10148;47.694;9.442;2022-08-06T05:41:01;16.90;99.90
19974;DHT22;10148;47.694;9.442;2022-08-06T05:43:27;17.00;99.90
19974;DHT22;10148;47.694;9.442;2022-08-06T05:45:57;16.90;99.90
19974;DHT22;10148;47.694;9.442;2022-08-06T05:48:24;16.90;99.90
19974;DHT22;10148;47.694;9.442;2022-08-06T05:50:55;16.90;99.90
19974;DHT22;10148;47.694;9.442;2022-08-06T05:53:30;16.90;99.90
19974;DHT22;10148;47.694;9.442;2022-08-06T05:56:04;16.90;99.90
19974;DHT22;10148;47.694;9.442;2022-08-06T05:58:52;16.90;99.90
19974;DHT22;10148;47.694;9.442;2022-08-06T06:01:19;16.90;99.90
19974;DHT22;10148;47.694;9.442;2022-08-06T06:03:46;16.90;99.90
19974;DHT22;10148;47.694;9.442;2022-08-06T06:06:12;16.90;99.90
19974;DHT22;10148;47.694;9.442;2022-08-06T06:08:37;16.90;99.90
19974;DHT22;10148;47.694;9.442;2022-08-06T06:13:34;16.80;99.90
19974;DHT22;10148;47.694;9.442;2022-08-06T06:16:24;16.80;99.90
19974;DHT22;10148;47.694;9.442;2022-08-06T06:21:40;16.90;99.90
19974;DHT22;10148;47.694;9.442;2022-08-06T06:24:18;16.90;99.90
19974;DHT22;10148;47.694;9.442;2022-08-06T06:26:48;16.90;99.90
19974;DHT22;10148;47.694;9.442;2022-08-06T06:34:54;17.00;99.90
19974;DHT22;10148;47.694;9.442;2022-08-06T06:37:42;17.10;99.90
19974;DHT22;10148;47.694;9.442;2022-08-06T06:40:39;17.10;99.90
19974;DHT22;10148;47.694;9.442;2022-08-06T06:43:20;17.00;99.90
19974;DHT22;10148;47.694;9.442;2022-08-06T06:48:23;17.00;99.90
19974;DHT22;10148;47.694;9.442;2022-08-06T06:50:53;17.00;99.90
19974;DHT22;10148;47.694;9.442;2022-08-06T06:53:19;16.90;99.90
19974;DHT22;10148;47.694;9.442;2022-08-06T06:55:48;16.90;99.90
19974;DHT22;10148;47.694;9.442;2022-08-06T06:58:23;16.90;99.90
19974;DHT22;10148;47.694;9.442;2022-08-06T07:00:52;16.90;99.90
19974;DHT22;10148;47.694;9.442;2022-08-06T07:03:19;16.90;99.90
19974;DHT22;10148;47.694;9.442;2022-08-06T07:05:48;16.80;99.90
19974;DHT22;10148;47.694;9.442;2022-08-06T07:08:18;16.90;99.90
19974;DHT22;10148;47.694;9.442;2022-08-06T07:10:44;16.90;99.90
19974;DHT22;10148;47.694;9.442;2022-08-06T07:13:11;16.90;99.90
19974;DHT22;10148;47.694;9.442;2022-08-06T07:15:40;16.90;99.90
19974;DHT22;10148;47.694;9.442;2022-08-06T07:18:06;16.90;99.90
19974;DHT22;10148;47.694;9.442;2022-08-06T07:20:33;16.80;99.90
19974;DHT22;10148;47.694;9.442;2022-08-06T07:23:02;16.80;99.90
19974;DHT22;10148;47.694;9.442;2022-08-06T07:25:28;16.80;99.90
19974;DHT22;10148;47.694;9.442;2022-08-06T07:27:54;16.90;99.90
19974;DHT22;10148;47.694;9.442;2022-08-06T07:30:21;16.80;99.90
19974;DHT22;10148;47.694;9.442;2022-08-06T07:32:48;16.70;99.90
19974;DHT22;10148;47.694;9.442;2022-08-06T07:35:16;16.70;99.90
19974;DHT22;10148;47.694;9.442;2022-08-06T07:37:47;16.70;99.90
19974;DHT22;10148;47.694;9.442;2022-08-06T07:40:27;16.70;99.90
19974;DHT22;10148;47.694;9.442;2022-08-06T07:42:59;16.60;99.90
19974;DHT22;10148;47.694;9.442;2022-08-06T07:45:28;16.60;99.90
19974;DHT22;10148;47.694;9.442;2022-08-06T07:47:55;16.60;99.90
19974;DHT22;10148;47.694;9.442;2022-08-06T07:50:23;16.60;99.90
19974;DHT22;10148;47.694;9.442;2022-08-06T07:52:51;16.60;99.90
19974;DHT22;10148;47.694;9.442;2022-08-06T07:55:17;16.60;99.90
19974;DHT22;10148;47.694;9.442;2022-08-06T07:57:43;16.60;99.90
19974;DHT22;10148;47.694;9.442;2022-08-06T08:00:09;16.60;99.90
19974;DHT22;10148;47.694;9.442;2022-08-06T08:02:35;16.60;99.90
19974;DHT22;10148;47.694;9.442;2022-08-06T08:05:01;16.60;99.90
19974;DHT22;10148;47.694;9.442;2022-08-06T08:07:46;16.60;99.90
19974;DHT22;10148;47.694;9.442;2022-08-06T08:10:12;16.60;99.90
19974;DHT22;10148;47.694;9.442;2022-08-06T08:12:38;16.50;99.90
19974;DHT22;10148;47.694;9.442;2022-08-06T08:15:06;16.50;99.90
19974;DHT22;10148;47.694;9.442;2022-08-06T08:17:32;16.50;99.90
19974;DHT22;10148;47.694;9.442;2022-08-06T08:20:05;16.50;99.90
19974;DHT22;10148;47.694;9.442;2022-08-06T08:22:31;16.50;99.90
19974;DHT22;10148;47.694;9.442;2022-08-06T08:24:57;16.40;99.90
19974;DHT22;10148;47.694;9.442;2022-08-06T08:27:22;16.40;99.90
19974;DHT22;10148;47.694;9.442;2022-08-06T08:29:48;16.40;99.90
19974;DHT22;10148;47.694;9.442;2022-08-06T08:32:13;16.40;99.90
19974;DHT22;10148;47.694;9.442;2022-08-06T08:34:39;16.30;99.90
19974;DHT22;10148;47.694;9.442;2022-08-06T08:37:04;16.30;99.90
19974;DHT22;10148;47.694;9.442;2022-08-06T08:39:30;16.30;99.90
19974;DHT22;10148;47.694;9.442;2022-08-06T08:44:33;16.30;99.90
19974;DHT22;10148;47.694;9.442;2022-08-06T08:47:00;16.30;99.90
19974;DHT22;10148;47.694;9.442;2022-08-06T08:49:40;16.30;99.90
19974;DHT22;10148;47.694;9.442;2022-08-06T08:52:14;16.30;99.90
19974;DHT22;10148;47.694;9.442;2022-08-06T08:54:43;16.30;99.90
19974;DHT22;10148;47.694;9.442;2022-08-06T08:57:10;16.30;99.90
19974;DHT22;10148;47.694;9.442;2022-08-06T08:59:37;16.30;99.90
19974;DHT22;10148;47.694;9.442;2022-08-06T09:02:04;16.30;99.90
19974;DHT22;10148;47.694;9.442;2022-08-06T09:04:32;16.30;99.90
19974;DHT22;10148;47.694;9.442;2022-08-06T09:06:57;16.30;99.90
19974;DHT22;10148;47.694;9.442;2022-08-06T09:09:24;16.30;99.90
19974;DHT22;10148;47.694;9.442;2022-08-06T09:11:49;16.30;99.90
19974;DHT22;10148;47.694;9.442;2022-08-06T09:14:15;16.30;99.90
19974;DHT22;10148;47.694;9.442;2022-08-06T09:16:41;16.40;99.90
19974;DHT22;10148;47.694;9.442;2022-08-06T09:19:06;16.50;99.90
19974;DHT22;10148;47.694;9.442;2022-08-06T09:21:32;16.40;99.90
19974;DHT22;10148;47.694;9.442;2022-08-06T09:23:58;16.50;99.90
19974;DHT22;10148;47.694;9.442;2022-08-06T09:26:24;16.40;99.90
19974;DHT22;10148;47.694;9.442;2022-08-06T09:28:50;16.50;99.90
19974;DHT22;10148;47.694;9.442;2022-08-06T09:31:17;16.50;99.90
19974;DHT22;10148;47.694;9.442;2022-08-06T09:34:12;16.50;99.90
19974;DHT22;10148;47.694;9.442;2022-08-06T09:36:43;16.40;99.90
19974;DHT22;10148;47.694;9.442;2022-08-06T09:39:09;16.50;99.90
19974;DHT22;10148;47.694;9.442;2022-08-06T09:41:48;16.50;99.90
19974;DHT22;10148;47.694;9.442;2022-08-06T09:44:14;16.60;99.90
19974;DHT22;10148;47.694;9.442;2022-08-06T09:46:44;16.60;99.90
19974;DHT22;10148;47.694;9.442;2022-08-06T09:49:11;16.60;99.90
19974;DHT22;10148;47.694;9.442;2022-08-06T09:51:38;16.70;99.90
19974;DHT22;10148;47.694;9.442;2022-08-06T09:54:07;16.70;99.90
19974;DHT22;10148;47.694;9.442;2022-08-06T09:56:35;16.70;99.90
19974;DHT22;10148;47.694;9.442;2022-08-06T09:59:03;16.80;99.90
19974;DHT22;10148;47.694;9.442;2022-08-06T10:01:41;16.70;99.90
19974;DHT22;10148;47.694;9.442;2022-08-06T10:04:32;16.80;99.90
19974;DHT22;10148;47.694;9.442;2022-08-06T10:06:59;16.80;99.90
19974;DHT22;10148;47.694;9.442;2022-08-06T10:09:27;16.80;99.90
19974;DHT22;10148;47.694;9.442;2022-08-06T10:11:54;16.80;99.90
19974;DHT22;10148;47.694;9.442;2022-08-06T10:14:32;16.90;99.90
19974;DHT22;10148;47.694;9.442;2022-08-06T10:17:06;16.90;99.90
19974;DHT22;10148;47.694;9.442;2022-08-06T10:19:32;16.90;99.90
19974;DHT22;10148;47.694;9.442;2022-08-06T10:24:32;17.00;99.90
19974;DHT22;10148;47.694;9.442;2022-08-06T10:27:01;17.00;99.90
19974;DHT22;10148;47.694;9.442;2022-08-06T10:29:27;17.10;99.90
19974;DHT22;10148;47.694;9.442;2022-08-06T10:31:53;17.10;99.90
19974;DHT22;10148;47.694;9.442;2022-08-06T10:34:23;17.20;99.90
19974;DHT22;10148;47.694;9.442;2022-08-06T10:36:54;17.30;99.90
19974;DHT22;10148;47.694;9.442;2022-08-06T10:39:28;17.40;99.90
19974;DHT22;10148;47.694;9.442;2022-08-06T10:41:54;17.50;99.90
19974;DHT22;10148;47.694;9.442;2022-08-06T10:44:22;17.60;99.90
19974;DHT22;10148;47.694;9.442;2022-08-06T10:46:50;17.70;99.90
19974;DHT22;10148;47.694;9.442;2022-08-06T10:49:16;17.70;99.90
19974;DHT22;10148;47.694;9.442;2022-08-06T10:51:43;17.90;99.90
19974;DHT22;10148;47.694;9.442;2022-08-06T10:54:09;17.90;99.90
19974;DHT22;10148;47.694;9.442;2022-08-06T10:56:35;18.00;99.90
19974;DHT22;10148;47.694;9.442;2022-08-06T10:59:01;18.10;99.90
19974;DHT22;10148;47.694;9.442;2022-08-06T11:04:23;18.50;99.90
19974;DHT22;10148;47.694;9.442;2022-08-06T11:12:31;19.00;99.90
19974;DHT22;10148;47.694;9.442;2022-08-06T11:15:00;19.20;99.90
19974;DHT22;10148;47.694;9.442;2022-08-06T11:17:41;19.40;99.90
19974;DHT22;10148;47.694;9.442;2022-08-06T11:20:07;19.50;99.90
19974;DHT22;10148;47.694;9.442;2022-08-06T11:22:40;19.60;99.90
19974;DHT22;10148;47.694;9.442;2022-08-06T11:25:07;19.70;99.90
19974;DHT22;10148;47.694;9.442;2022-08-06T11:27:53;19.80;99.90
19974;DHT22;10148;47.694;9.442;2022-08-06T11:33:07;20.10;99.90
19974;DHT22;10148;47.694;9.442;2022-08-06T11:37:59;20.40;99.90
19974;DHT22;10148;47.694;9.442;2022-08-06T11:40:25;20.40;99.90
19974;DHT22;10148;47.694;9.442;2022-08-06T11:42:51;20.40;99.90
19974;DHT22;10148;47.694;9.442;2022-08-06T11:45:17;20.40;99.90
19974;DHT22;10148;47.694;9.442;2022-08-06T11:48:06;20.50;99.90
19974;DHT22;10148;47.694;9.442;2022-08-06T11:50:31;20.60;99.90
19974;DHT22;10148;47.694;9.442;2022-08-06T11:52:57;20.70;99.90
19974;DHT22;10148;47.694;9.442;2022-08-06T11:55:23;20.70;99.90
19974;DHT22;10148;47.694;9.442;2022-08-06T12:00:54;21.10;99.90
19974;DHT22;10148;47.694;9.442;2022-08-06T12:03:36;21.60;99.90
19974;DHT22;10148;47.694;9.442;2022-08-06T12:06:26;22.00;99.90
19974;DHT22;10148;47.694;9.442;2022-08-06T12:09:11;21.90;99.90
19974;DHT22;10148;47.694;9.442;2022-08-06T12:11:40;21.90;99.90
19974;DHT22;10148;47.694;9.442;2022-08-06T12:14:38;22.00;99.90
19974;DHT22;10148;47.694;9.442;2022-08-06T12:17:10;21.80;99.90
19974;DHT22;10148;47.694;9.442;2022-08-06T12:19:42;21.70;99.90
19974;DHT22;10148;47.694;9.442;2022-08-06T12:22:09;21.60;99.90
19974;DHT22;10148;47.694;9.442;2022-08-06T12:24:35;21.40;99.90
19974;DHT22;10148;47.694;9.442;2022-08-06T12:27:04;21.20;99.90
19974;DHT22;10148;47.694;9.442;2022-08-06T12:29:30;21.10;99.90
19974;DHT22;10148;47.694;9.442;2022-08-06T12:31:56;21.10;99.90
19974;DHT22;10148;47.694;9.442;2022-08-06T12:34:25;20.90;99.90
19974;DHT22;10148;47.694;9.442;2022-08-06T12:36:51;20.90;99.90
19974;DHT22;10148;47.694;9.442;2022-08-06T12:39:17;20.90;99.90
19974;DHT22;10148;47.694;9.442;2022-08-06T12:41:42;20.90;99.90
19974;DHT22;10148;47.694;9.442;2022-08-06T12:44:08;20.80;99.90
19974;DHT22;10148;47.694;9.442;2022-08-06T12:46:34;20.80;99.90
19974;DHT22;10148;47.694;9.442;2022-08-06T12:49:00;20.90;99.90
19974;DHT22;10148;47.694;9.442;2022-08-06T12:51:26;20.90;99.90
19974;DHT22;10148;47.694;9.442;2022-08-06T12:53:55;20.90;99.90
19974;DHT22;10148;47.694;9.442;2022-08-06T12:56:23;21.00;99.90
19974;DHT22;10148;47.694;9.442;2022-08-06T12:58:51;21.00;99.90
19974;DHT22;10148;47.694;9.442;2022-08-06T13:01:21;21.10;99.90
19974;DHT22;10148;47.694;9.442;2022-08-06T13:03:50;21.20;99.90
19974;DHT22;10148;47.694;9.442;2022-08-06T13:06:18;21.20;99.90
19974;DHT22;10148;47.694;9.442;2022-08-06T13:08:48;21.20;99.90
19974;DHT22;10148;47.694;9.442;2022-08-06T13:11:15;21.40;99.90
19974;DHT22;10148;47.694;9.442;2022-08-06T13:13:51;21.50;99.90
19974;DHT22;10148;47.694;9.442;2022-08-06T13:16:18;21.80;99.90
19974;DHT22;10148;47.694;9.442;2022-08-06T13:19:12;21.90;99.90
19974;DHT22;10148;47.694;9.442;2022-08-06T13:21:39;22.00;99.90
19974;DHT22;10148;47.694;9.442;2022-08-06T13:24:06;22.30;99.90
19974;DHT22;10148;47.694;9.442;2022-08-06T13:26:34;22.30;99.90
19974;DHT22;10148;47.694;9.442;2022-08-06T13:29:17;22.30;99.90
19974;DHT22;10148;47.694;9.442;2022-08-06T13:31:44;22.30;99.90
19974;DHT22;10148;47.694;9.442;2022-08-06T13:34:15;22.30;99.90
19974;DHT22;10148;47.694;9.442;2022-08-06T13:36:43;22.10;99.90
19974;DHT22;10148;47.694;9.442;2022-08-06T13:39:24;22.10;99.90
19974;DHT22;10148;47.694;9.442;2022-08-06T13:44:30;22.50;99.90
19974;DHT22;10148;47.694;9.442;2022-08-06T13:46:56;22.50;99.90
19974;DHT22;10148;47.694;9.442;2022-08-06T13:49:22;22.50;99.90
19974;DHT22;10148;47.694;9.442;2022-08-06T13:51:47;22.50;99.90
19974;DHT22;10148;47.694;9.442;2022-08-06T13:54:13;22.50;99.90
19974;DHT22;10148;47.694;9.442;2022-08-06T13:56:38;22.40;99.90
19974;DHT22;10148;47.694;9.442;2022-08-06T13:59:04;22.30;99.90
19974;DHT22;10148;47.694;9.442;2022-08-06T14:01:30;22.30;99.90
19974;DHT22;10148;47.694;9.442;2022-08-06T14:03:55;22.50;99.90
19974;DHT22;10148;47.694;9.442;2022-08-06T14:06:21;22.70;99.90
19974;DHT22;10148;47.694;9.442;2022-08-06T14:08:46;22.80;99.90
19974;DHT22;10148;47.694;9.442;2022-08-06T14:11:12;22.90;99.90
19974;DHT22;10148;47.694;9.442;2022-08-06T14:13:38;23.10;99.90
19974;DHT22;10148;47.694;9.442;2022-08-06T14:16:04;23.20;99.90
19974;DHT22;10148;47.694;9.442;2022-08-06T14:18:29;23.20;99.90
19974;DHT22;10148;47.694;9.442;2022-08-06T14:20:55;23.10;99.90
19974;DHT22;10148;47.694;9.442;2022-08-06T14:23:21;23.00;99.90
19974;DHT22;10148;47.694;9.442;2022-08-06T14:25:46;22.90;99.90
19974;DHT22;10148;47.694;9.442;2022-08-06T14:28:12;22.60;99.90
19974;DHT22;10148;47.694;9.442;2022-08-06T14:30:39;22.70;99.90
19974;DHT22;10148;47.694;9.442;2022-08-06T14:33:05;22.60;99.90
19974;DHT22;10148;47.694;9.442;2022-08-06T14:35:35;22.70;99.90
19974;DHT22;10148;47.694;9.442;2022-08-06T14:38:05;22.80;99.90
19974;DHT22;10148;47.694;9.442;2022-08-06T14:40:31;22.70;99.90
19974;DHT22;10148;47.694;9.442;2022-08-06T14:43:15;22.60;99.90
19974;DHT22;10148;47.694;9.442;2022-08-06T14:45:59;22.50;99.90
19974;DHT22;10148;47.694;9.442;2022-08-06T14:48:25;22.40;99.90
19974;DHT22;10148;47.694;9.442;2022-08-06T14:50:50;22.40;99.90
19974;DHT22;10148;47.694;9.442;2022-08-06T14:53:16;22.50;99.90
19974;DHT22;10148;47.694;9.442;2022-08-06T14:55:41;22.40;99.90
19974;DHT22;10148;47.694;9.442;2022-08-06T14:58:07;22.40;99.90
19974;DHT22;10148;47.694;9.442;2022-08-06T15:00:32;22.40;99.90
19974;DHT22;10148;47.694;9.442;2022-08-06T15:02:58;22.40;99.90
19974;DHT22;10148;47.694;9.442;2022-08-06T15:05:24;22.50;99.90
19974;DHT22;10148;47.694;9.442;2022-08-06T15:07:49;22.50;99.90
19974;DHT22;10148;47.694;9.442;2022-08-06T15:10:15;22.60;99.90
19974;DHT22;10148;47.694;9.442;2022-08-06T15:12:41;22.60;99.90
19974;DHT22;10148;47.694;9.442;2022-08-06T15:15:07;22.60;99.90
19974;DHT22;10148;47.694;9.442;2022-08-06T15:17:33;22.50;99.90
19974;DHT22;10148;47.694;9.442;2022-08-06T15:19:58;22.30;99.90
19974;DHT22;10148;47.694;9.442;2022-08-06T15:22:24;22.10;99.90
19974;DHT22;10148;47.694;9.442;2022-08-06T15:24:49;21.90;99.90
19974;DHT22;10148;47.694;9.442;2022-08-06T15:27:15;21.90;99.90
19974;DHT22;10148;47.694;9.442;2022-08-06T15:29:48;21.80;99.90
19974;DHT22;10148;47.694;9.442;2022-08-06T15:32:14;21.60;99.90
19974;DHT22;10148;47.694;9.442;2022-08-06T15:34:40;21.70;99.90
19974;DHT22;10148;47.694;9.442;2022-08-06T15:37:06;21.60;99.90
19974;DHT22;10148;47.694;9.442;2022-08-06T15:39:32;21.70;99.90
19974;DHT22;10148;47.694;9.442;2022-08-06T15:41:58;21.70;99.90
19974;DHT22;10148;47.694;9.442;2022-08-06T15:44:24;21.70;99.90
19974;DHT22;10148;47.694;9.442;2022-08-06T15:46:50;21.70;99.90
19974;DHT22;10148;47.694;9.442;2022-08-06T15:49:15;21.60;99.90
19974;DHT22;10148;47.694;9.442;2022-08-06T15:51:41;21.70;99.90
19974;DHT22;10148;47.694;9.442;2022-08-06T15:54:06;21.80;99.90
19974;DHT22;10148;47.694;9.442;2022-08-06T15:56:32;21.80;99.90
19974;DHT22;10148;47.694;9.442;2022-08-06T15:58:58;21.70;99.90
19974;DHT22;10148;47.694;9.442;2022-08-06T16:01:24;21.70;99.90
19974;DHT22;10148;47.694;9.442;2022-08-06T16:03:49;21.80;99.90
19974;DHT22;10148;47.694;9.442;2022-08-06T16:06:15;21.80;99.90
19974;DHT22;10148;47.694;9.442;2022-08-06T16:08:40;22.00;99.90
19974;DHT22;10148;47.694;9.442;2022-08-06T16:11:06;22.20;99.90
19974;DHT22;10148;47.694;9.442;2022-08-06T16:13:32;22.30;99.90
19974;DHT22;10148;47.694;9.442;2022-08-06T16:15:58;22.50;99.90
19974;DHT22;10148;47.694;9.442;2022-08-06T16:18:23;22.70;99.90
19974;DHT22;10148;47.694;9.442;2022-08-06T16:20:49;22.80;99.90
19974;DHT22;10148;47.694;9.442;2022-08-06T16:23:16;22.70;99.90
19974;DHT22;10148;47.694;9.442;2022-08-06T16:25:43;22.80;99.90
19974;DHT22;10148;47.694;9.442;2022-08-06T16:28:09;22.80;99.90